»·PEaware :: N695DS KSNA-KSBA

N695DS :: KSNA-KSBA

FLIGHT INFORMATION

Flight Status: Arrived
Operator: Privately registered:
United States
More flights under this callsign
Pilot: Christopher S. (2105)
Aircraft: Unknown
(DA62)
More flights by this aircraft type
Origin: KSNA John Wayne-Orange Co
United States
Destination: KSBA Santa Barbara Mun
United States
More flights between these airports :: More routes between these airports
Route: SLI V23 LAX V299 VTU VTU282R KWANG
File this flight plan on PilotEdge
Remarks: TEC route CSTP21
Altitude:
(Current/Filed)
6,000ft
Speed:
(Current/Filed)
170kts
Departed: 06-Jan-19 08:41 PM
Arrived: 06-Jan-19 09:47 PM
Distance/Time
Traveled:
108nm/1:06
Distance/Time
To Go:
Arrived

Flight Plot

Page will automatically refresh every two minutes.


Map Options




Map Legend


Flown Route
Filed Route
Departure Airport
Arrival Airport
Navaid (VOR, NDB)
Fix

Horizontal Profiles

Position Reports

Time Latitude Longitude Heading Altitude Ground
Speed
06-Jan-19 20:20 33.671691 -117.873685 29 60ft 0kts
06-Jan-19 20:21 33.671691 -117.873685 29 60ft 0kts
06-Jan-19 20:22 33.671691 -117.873685 29 60ft 0kts
06-Jan-19 20:23 33.671691 -117.873685 29 60ft 0kts
06-Jan-19 20:25 33.671691 -117.873685 29 60ft 0kts
06-Jan-19 20:26 33.671691 -117.873685 29 60ft 0kts
06-Jan-19 20:27 33.671691 -117.873685 29 60ft 0kts
06-Jan-19 20:28 33.671691 -117.873685 29 60ft 0kts
06-Jan-19 20:29 33.671691 -117.873685 29 60ft 0kts
06-Jan-19 20:30 33.671691 -117.873685 29 60ft 0kts
06-Jan-19 20:31 33.671691 -117.873685 29 60ft 0kts
06-Jan-19 20:32 33.671691 -117.873685 29 60ft 0kts
06-Jan-19 20:33 33.671691 -117.873685 29 60ft 0kts
06-Jan-19 20:34 33.671691 -117.873684 29 60ft 0kts
06-Jan-19 20:35 33.671663 -117.872861 25 60ft 7kts
06-Jan-19 20:36 33.674690 -117.870989 20 60ft 15kts
06-Jan-19 20:37 33.677973 -117.868865 28 60ft 14kts
06-Jan-19 20:38 33.681289 -117.866783 84 60ft 6kts
06-Jan-19 20:39 33.681207 -117.866524 127 60ft 0kts
06-Jan-19 20:40 33.680854 -117.865847 125 60ft 7kts
06-Jan-19 20:41 33.667575 -117.874488 212 535ft 84kts
06-Jan-19 20:42 33.648964 -117.894277 223 1855ft 88kts
06-Jan-19 20:43 33.624573 -117.922589 224 2156ft 134kts
06-Jan-19 20:44 33.596185 -117.957808 225 2021ft 154kts
06-Jan-19 20:45 33.567474 -117.992569 225 2195ft 135kts
06-Jan-19 20:45 33.559990 -118.021168 312 2995ft 136kts
06-Jan-19 20:47 33.594484 -118.051025 310 4079ft 129kts
06-Jan-19 20:47 33.616919 -118.074652 308 4741ft 128kts
06-Jan-19 20:49 33.645897 -118.106730 307 5613ft 127kts
06-Jan-19 20:49 33.667563 -118.131311 312 6019ft 136kts
06-Jan-19 20:50 33.696545 -118.163759 312 6017ft 146kts
06-Jan-19 20:51 33.726303 -118.197363 311 6016ft 147kts
06-Jan-19 20:52 33.756124 -118.231044 310 6017ft 147kts
06-Jan-19 20:53 33.785600 -118.264387 308 6015ft 145kts
06-Jan-19 20:54 33.814883 -118.297643 308 6015ft 145kts
06-Jan-19 20:55 33.844462 -118.331213 308 6015ft 146kts
06-Jan-19 20:56 33.873962 -118.364726 308 5998ft 147kts
06-Jan-19 20:57 33.881078 -118.372805 307 5996ft 147kts
06-Jan-19 20:58 33.910182 -118.405897 307 5996ft 147kts
06-Jan-19 20:59 33.935571 -118.441760 286 6014ft 139kts
06-Jan-19 21:00 33.949025 -118.485756 285 6014ft 140kts
06-Jan-19 21:01 33.960475 -118.524051 284 6015ft 143kts
06-Jan-19 21:02 33.973755 -118.568801 284 6014ft 144kts
06-Jan-19 21:03 33.987250 -118.614364 284 6014ft 144kts
06-Jan-19 21:04 34.000226 -118.658263 284 6019ft 144kts
06-Jan-19 21:05 34.013620 -118.703614 284 6047ft 144kts
06-Jan-19 21:06 34.027037 -118.749116 284 6048ft 145kts
06-Jan-19 21:07 34.039923 -118.792861 283 6020ft 144kts
06-Jan-19 21:08 34.052593 -118.835987 283 6033ft 143kts
06-Jan-19 21:09 34.064903 -118.877984 283 5900ft 148kts
06-Jan-19 21:10 34.078430 -118.924103 283 5436ft 153kts
06-Jan-19 21:11 34.090470 -118.965232 283 4988ft 156kts
06-Jan-19 21:12 34.104743 -119.014075 283 4403ft 158kts
06-Jan-19 21:13 34.120787 -119.062869 288 4034ft 153kts
06-Jan-19 21:14 34.139162 -119.106802 288 4034ft 149kts
06-Jan-19 21:15 34.157554 -119.150764 289 4017ft 150kts
06-Jan-19 21:16 34.176294 -119.195430 289 4016ft 150kts
06-Jan-19 21:17 34.194915 -119.239950 289 4015ft 151kts
06-Jan-19 21:18 34.211214 -119.278932 288 4015ft 150kts
06-Jan-19 21:19 34.218976 -119.297531 288 4015ft 150kts
06-Jan-19 21:20 34.237737 -119.342509 288 4015ft 150kts
06-Jan-19 21:21 34.256517 -119.387512 287 4013ft 150kts
06-Jan-19 21:22 34.267379 -119.434217 266 4015ft 143kts
06-Jan-19 21:23 34.269006 -119.482463 266 4014ft 143kts
06-Jan-19 21:24 34.270624 -119.530735 266 4013ft 143kts
06-Jan-19 21:25 34.272173 -119.578921 266 3995ft 144kts
06-Jan-19 21:26 34.273843 -119.627468 265 3995ft 145kts
06-Jan-19 21:27 34.275433 -119.676509 263 4000ft 147kts
06-Jan-19 21:28 34.276684 -119.726479 275 4001ft 147kts
06-Jan-19 21:29 34.278519 -119.774589 276 4002ft 141kts
06-Jan-19 21:30 34.280029 -119.821818 276 4002ft 140kts
06-Jan-19 21:31 34.280939 -119.868808 270 4002ft 141kts
06-Jan-19 21:32 34.277148 -119.916230 270 4001ft 141kts
06-Jan-19 21:33 34.273290 -119.963660 270 4001ft 141kts
06-Jan-19 21:34 34.269433 -120.010834 270 4000ft 141kts
06-Jan-19 21:35 34.265539 -120.058232 270 4000ft 141kts
06-Jan-19 21:36 34.287908 -120.085723 343 3824ft 149kts
06-Jan-19 21:37 34.329315 -120.087749 349 3498ft 142kts
06-Jan-19 21:38 34.366522 -120.088228 348 3480ft 129kts
06-Jan-19 21:39 34.401941 -120.088633 347 3479ft 123kts
06-Jan-19 21:40 34.423285 -120.057387 85 3242ft 167kts
06-Jan-19 21:41 34.423463 -120.004910 82 2810ft 137kts
06-Jan-19 21:42 34.421959 -119.959987 82 1954ft 127kts
06-Jan-19 21:43 34.419345 -119.922577 86 1192ft 102kts
06-Jan-19 21:44 34.420133 -119.892737 62 668ft 80kts
06-Jan-19 21:45 34.426882 -119.867389 79 262ft 78kts
06-Jan-19 21:46 34.428102 -119.846365 58 14ft 17kts
06-Jan-19 21:47 34.428893 -119.844481 56 14ft 17kts
06-Jan-19 21:48 34.430908 -119.839108 66 14ft 16kts
06-Jan-19 21:49 34.432777 -119.835555 318 14ft 7kts

Navigation Log

Ident Type
Flight plan parsing failed, navigation log unavailable